sensor_id;sensor_type;location;lat;lon;timestamp;temperature;humidity
12885;DHT22;6510;51.362;7.370;2023-07-09T00:01:18;23.70;96.90
12885;DHT22;6510;51.362;7.370;2023-07-09T00:03:47;23.70;96.90
12885;DHT22;6510;51.362;7.370;2023-07-09T00:06:20;23.70;97.00
12885;DHT22;6510;51.362;7.370;2023-07-09T00:08:46;23.70;96.80
12885;DHT22;6510;51.362;7.370;2023-07-09T00:11:14;23.70;97.00
12885;DHT22;6510;51.362;7.370;2023-07-09T00:13:40;23.60;97.30
12885;DHT22;6510;51.362;7.370;2023-07-09T00:16:12;23.60;97.20
12885;DHT22;6510;51.362;7.370;2023-07-09T00:18:39;23.70;97.40
12885;DHT22;6510;51.362;7.370;2023-07-09T00:21:05;23.70;97.50
12885;DHT22;6510;51.362;7.370;2023-07-09T00:23:31;23.60;97.60
12885;DHT22;6510;51.362;7.370;2023-07-09T00:25:57;23.60;97.60
12885;DHT22;6510;51.362;7.370;2023-07-09T00:28:22;23.50;98.10
12885;DHT22;6510;51.362;7.370;2023-07-09T00:30:48;23.40;98.30
12885;DHT22;6510;51.362;7.370;2023-07-09T00:33:15;23.30;98.70
12885;DHT22;6510;51.362;7.370;2023-07-09T00:35:45;23.30;98.90
12885;DHT22;6510;51.362;7.370;2023-07-09T00:38:22;23.30;99.00
12885;DHT22;6510;51.362;7.370;2023-07-09T00:41:03;23.30;99.20
12885;DHT22;6510;51.362;7.370;2023-07-09T00:43:36;23.30;99.30
12885;DHT22;6510;51.362;7.370;2023-07-09T00:47:20;23.20;99.60
12885;DHT22;6510;51.362;7.370;2023-07-09T00:49:10;23.30;99.90
12885;DHT22;6510;51.362;7.370;2023-07-09T00:51:45;23.10;99.90
12885;DHT22;6510;51.362;7.370;2023-07-09T00:54:41;23.20;99.90
12885;DHT22;6510;51.362;7.370;2023-07-09T00:57:13;23.30;99.90
12885;DHT22;6510;51.362;7.370;2023-07-09T00:59:47;23.30;99.90
12885;DHT22;6510;51.362;7.370;2023-07-09T01:02:14;23.30;99.90
12885;DHT22;6510;51.362;7.370;2023-07-09T01:04:40;23.30;99.90
12885;DHT22;6510;51.362;7.370;2023-07-09T01:07:07;23.30;99.90
12885;DHT22;6510;51.362;7.370;2023-07-09T01:09:33;23.30;99.90
12885;DHT22;6510;51.362;7.370;2023-07-09T01:12:04;23.30;99.90
12885;DHT22;6510;51.362;7.370;2023-07-09T01:14:31;23.40;99.90
12885;DHT22;6510;51.362;7.370;2023-07-09T01:17:00;23.40;99.90
12885;DHT22;6510;51.362;7.370;2023-07-09T01:19:29;23.40;99.90
12885;DHT22;6510;51.362;7.370;2023-07-09T01:22:00;23.50;99.90
12885;DHT22;6510;51.362;7.370;2023-07-09T01:24:58;23.40;99.90
12885;DHT22;6510;51.362;7.370;2023-07-09T01:27:42;23.30;99.90
12885;DHT22;6510;51.362;7.370;2023-07-09T01:30:16;23.30;99.90
12885;DHT22;6510;51.362;7.370;2023-07-09T01:32:42;23.20;99.90
12885;DHT22;6510;51.362;7.370;2023-07-09T01:35:13;23.20;99.90
12885;DHT22;6510;51.362;7.370;2023-07-09T01:37:41;23.20;99.90
12885;DHT22;6510;51.362;7.370;2023-07-09T01:40:08;23.20;99.90
12885;DHT22;6510;51.362;7.370;2023-07-09T01:42:36;23.10;99.90
12885;DHT22;6510;51.362;7.370;2023-07-09T01:45:05;23.20;99.90
12885;DHT22;6510;51.362;7.370;2023-07-09T01:47:31;23.10;99.90
12885;DHT22;6510;51.362;7.370;2023-07-09T01:49:57;23.00;99.90
12885;DHT22;6510;51.362;7.370;2023-07-09T01:52:26;23.00;99.90
12885;DHT22;6510;51.362;7.370;2023-07-09T01:54:52;23.00;99.90
12885;DHT22;6510;51.362;7.370;2023-07-09T01:57:23;23.00;99.90
12885;DHT22;6510;51.362;7.370;2023-07-09T01:59:54;23.00;99.90
12885;DHT22;6510;51.362;7.370;2023-07-09T02:02:21;23.00;99.90
12885;DHT22;6510;51.362;7.370;2023-07-09T02:04:48;23.00;99.90
12885;DHT22;6510;51.362;7.370;2023-07-09T02:07:14;22.90;99.90
12885;DHT22;6510;51.362;7.370;2023-07-09T02:09:40;22.90;99.90
12885;DHT22;6510;51.362;7.370;2023-07-09T02:12:06;22.90;99.90
12885;DHT22;6510;51.362;7.370;2023-07-09T02:14:32;22.90;99.90
12885;DHT22;6510;51.362;7.370;2023-07-09T02:16:58;22.90;99.90
12885;DHT22;6510;51.362;7.370;2023-07-09T02:19:23;22.90;99.90
12885;DHT22;6510;51.362;7.370;2023-07-09T02:21:49;22.80;99.90
12885;DHT22;6510;51.362;7.370;2023-07-09T02:24:14;22.80;99.90
12885;DHT22;6510;51.362;7.370;2023-07-09T02:26:40;22.80;99.90
12885;DHT22;6510;51.362;7.370;2023-07-09T02:29:06;22.70;99.90
12885;DHT22;6510;51.362;7.370;2023-07-09T02:31:32;22.80;99.90
12885;DHT22;6510;51.362;7.370;2023-07-09T02:33:59;22.80;99.90
12885;DHT22;6510;51.362;7.370;2023-07-09T02:36:25;22.80;99.90
12885;DHT22;6510;51.362;7.370;2023-07-09T02:38:51;22.70;99.90
12885;DHT22;6510;51.362;7.370;2023-07-09T02:41:16;22.70;99.90
12885;DHT22;6510;51.362;7.370;2023-07-09T02:43:42;22.70;99.90
12885;DHT22;6510;51.362;7.370;2023-07-09T02:46:10;22.70;99.90
12885;DHT22;6510;51.362;7.370;2023-07-09T02:48:35;22.60;99.90
12885;DHT22;6510;51.362;7.370;2023-07-09T02:51:01;22.60;99.90
12885;DHT22;6510;51.362;7.370;2023-07-09T02:53:27;22.60;99.90
12885;DHT22;6510;51.362;7.370;2023-07-09T02:55:53;22.60;99.90
12885;DHT22;6510;51.362;7.370;2023-07-09T02:58:18;22.60;99.90
12885;DHT22;6510;51.362;7.370;2023-07-09T03:00:44;22.40;99.90
12885;DHT22;6510;51.362;7.370;2023-07-09T03:03:17;22.40;99.90
12885;DHT22;6510;51.362;7.370;2023-07-09T03:05:44;22.30;99.90
12885;DHT22;6510;51.362;7.370;2023-07-09T03:08:10;22.40;99.90
12885;DHT22;6510;51.362;7.370;2023-07-09T03:10:36;22.30;99.90
12885;DHT22;6510;51.362;7.370;2023-07-09T03:13:01;22.30;99.90
12885;DHT22;6510;51.362;7.370;2023-07-09T03:15:27;22.30;99.90
12885;DHT22;6510;51.362;7.370;2023-07-09T03:17:52;22.30;99.90
12885;DHT22;6510;51.362;7.370;2023-07-09T03:20:18;22.30;99.90
12885;DHT22;6510;51.362;7.370;2023-07-09T03:22:43;22.30;99.90
12885;DHT22;6510;51.362;7.370;2023-07-09T03:25:09;22.30;99.90
12885;DHT22;6510;51.362;7.370;2023-07-09T03:27:35;22.30;99.90
12885;DHT22;6510;51.362;7.370;2023-07-09T03:30:00;22.20;99.90
12885;DHT22;6510;51.362;7.370;2023-07-09T03:32:26;22.20;99.90
12885;DHT22;6510;51.362;7.370;2023-07-09T03:34:52;22.30;99.90
12885;DHT22;6510;51.362;7.370;2023-07-09T03:37:18;22.30;99.90
12885;DHT22;6510;51.362;7.370;2023-07-09T03:39:45;22.30;99.90
12885;DHT22;6510;51.362;7.370;2023-07-09T03:42:11;22.30;99.90
12885;DHT22;6510;51.362;7.370;2023-07-09T03:44:37;22.40;99.90
12885;DHT22;6510;51.362;7.370;2023-07-09T03:47:03;22.40;99.90
12885;DHT22;6510;51.362;7.370;2023-07-09T03:49:29;22.40;99.90
12885;DHT22;6510;51.362;7.370;2023-07-09T03:51:54;22.40;99.90
12885;DHT22;6510;51.362;7.370;2023-07-09T03:54:20;22.40;99.90
12885;DHT22;6510;51.362;7.370;2023-07-09T03:56:45;22.40;99.90
12885;DHT22;6510;51.362;7.370;2023-07-09T03:59:11;22.30;99.90
12885;DHT22;6510;51.362;7.370;2023-07-09T04:01:37;22.40;99.90
12885;DHT22;6510;51.362;7.370;2023-07-09T04:04:03;22.40;99.90
12885;DHT22;6510;51.362;7.370;2023-07-09T04:06:29;22.40;99.90
12885;DHT22;6510;51.362;7.370;2023-07-09T04:08:54;22.40;99.90
12885;DHT22;6510;51.362;7.370;2023-07-09T04:11:20;22.40;99.90
12885;DHT22;6510;51.362;7.370;2023-07-09T04:13:45;22.40;99.90
12885;DHT22;6510;51.362;7.370;2023-07-09T04:16:11;22.40;99.90
12885;DHT22;6510;51.362;7.370;2023-07-09T04:18:37;22.40;99.90
12885;DHT22;6510;51.362;7.370;2023-07-09T04:21:03;22.50;99.90
12885;DHT22;6510;51.362;7.370;2023-07-09T04:23:29;22.60;99.90
12885;DHT22;6510;51.362;7.370;2023-07-09T04:25:54;22.60;99.90
12885;DHT22;6510;51.362;7.370;2023-07-09T04:28:20;22.60;99.90
12885;DHT22;6510;51.362;7.370;2023-07-09T04:30:49;22.60;99.90
12885;DHT22;6510;51.362;7.370;2023-07-09T04:33:16;22.70;99.90
12885;DHT22;6510;51.362;7.370;2023-07-09T04:35:44;22.70;99.90
12885;DHT22;6510;51.362;7.370;2023-07-09T04:38:10;22.70;99.90
12885;DHT22;6510;51.362;7.370;2023-07-09T04:40:35;22.70;99.90
12885;DHT22;6510;51.362;7.370;2023-07-09T04:43:01;22.80;99.90
12885;DHT22;6510;51.362;7.370;2023-07-09T04:45:27;22.80;99.90
12885;DHT22;6510;51.362;7.370;2023-07-09T04:47:52;22.80;99.90
12885;DHT22;6510;51.362;7.370;2023-07-09T04:50:18;22.80;99.90
12885;DHT22;6510;51.362;7.370;2023-07-09T04:52:44;22.80;99.90
12885;DHT22;6510;51.362;7.370;2023-07-09T04:55:09;22.80;99.90
12885;DHT22;6510;51.362;7.370;2023-07-09T04:57:36;22.80;99.90
12885;DHT22;6510;51.362;7.370;2023-07-09T05:00:02;22.90;99.90
12885;DHT22;6510;51.362;7.370;2023-07-09T05:02:30;23.00;99.90
12885;DHT22;6510;51.362;7.370;2023-07-09T05:04:58;23.20;99.90
12885;DHT22;6510;51.362;7.370;2023-07-09T05:07:24;23.30;99.90
12885;DHT22;6510;51.362;7.370;2023-07-09T05:09:49;23.60;99.90
12885;DHT22;6510;51.362;7.370;2023-07-09T05:12:15;24.10;99.90
12885;DHT22;6510;51.362;7.370;2023-07-09T05:14:41;24.90;99.90
12885;DHT22;6510;51.362;7.370;2023-07-09T05:17:07;25.80;99.90
12885;DHT22;6510;51.362;7.370;2023-07-09T05:19:33;26.20;99.90
12885;DHT22;6510;51.362;7.370;2023-07-09T05:21:58;26.80;99.90
12885;DHT22;6510;51.362;7.370;2023-07-09T05:24:24;26.90;99.90
12885;DHT22;6510;51.362;7.370;2023-07-09T05:26:50;27.00;99.70
12885;DHT22;6510;51.362;7.370;2023-07-09T05:29:15;27.20;99.40
12885;DHT22;6510;51.362;7.370;2023-07-09T05:31:41;27.20;99.30
12885;DHT22;6510;51.362;7.370;2023-07-09T05:34:07;27.70;98.40
12885;DHT22;6510;51.362;7.370;2023-07-09T05:36:33;27.80;98.30
12885;DHT22;6510;51.362;7.370;2023-07-09T05:38:59;28.00;97.90
12885;DHT22;6510;51.362;7.370;2023-07-09T05:41:25;28.00;97.20
12885;DHT22;6510;51.362;7.370;2023-07-09T05:43:51;28.00;97.80
12885;DHT22;6510;51.362;7.370;2023-07-09T05:46:18;28.30;97.20
12885;DHT22;6510;51.362;7.370;2023-07-09T05:48:44;28.40;97.20
12885;DHT22;6510;51.362;7.370;2023-07-09T05:51:10;28.50;96.60
12885;DHT22;6510;51.362;7.370;2023-07-09T05:53:38;28.50;97.30
12885;DHT22;6510;51.362;7.370;2023-07-09T05:56:05;28.50;97.50
12885;DHT22;6510;51.362;7.370;2023-07-09T05:58:30;28.70;96.30
12885;DHT22;6510;51.362;7.370;2023-07-09T06:00:56;28.90;96.00
12885;DHT22;6510;51.362;7.370;2023-07-09T06:03:25;29.20;95.90
12885;DHT22;6510;51.362;7.370;2023-07-09T06:05:52;29.40;95.60
12885;DHT22;6510;51.362;7.370;2023-07-09T06:08:19;29.60;95.40
12885;DHT22;6510;51.362;7.370;2023-07-09T06:10:56;29.50;94.40
12885;DHT22;6510;51.362;7.370;2023-07-09T06:13:22;29.50;95.10
12885;DHT22;6510;51.362;7.370;2023-07-09T06:15:48;29.20;95.60
12885;DHT22;6510;51.362;7.370;2023-07-09T06:18:14;29.60;95.40
12885;DHT22;6510;51.362;7.370;2023-07-09T06:20:40;29.90;94.10
12885;DHT22;6510;51.362;7.370;2023-07-09T06:23:05;30.00;94.10
12885;DHT22;6510;51.362;7.370;2023-07-09T06:25:31;29.90;95.10
12885;DHT22;6510;51.362;7.370;2023-07-09T06:27:57;30.00;93.50
12885;DHT22;6510;51.362;7.370;2023-07-09T06:30:23;30.40;93.20
12885;DHT22;6510;51.362;7.370;2023-07-09T06:32:49;30.60;92.90
12885;DHT22;6510;51.362;7.370;2023-07-09T06:35:14;31.00;92.50
12885;DHT22;6510;51.362;7.370;2023-07-09T06:37:40;31.10;91.80
12885;DHT22;6510;51.362;7.370;2023-07-09T06:40:08;31.00;93.00
12885;DHT22;6510;51.362;7.370;2023-07-09T06:42:35;31.40;92.40
12885;DHT22;6510;51.362;7.370;2023-07-09T06:45:01;31.60;92.00
12885;DHT22;6510;51.362;7.370;2023-07-09T06:47:29;31.90;90.90
12885;DHT22;6510;51.362;7.370;2023-07-09T06:49:54;31.50;90.90
12885;DHT22;6510;51.362;7.370;2023-07-09T06:52:20;31.40;91.00
12885;DHT22;6510;51.362;7.370;2023-07-09T06:54:45;31.20;91.60
12885;DHT22;6510;51.362;7.370;2023-07-09T06:57:11;31.40;92.50
12885;DHT22;6510;51.362;7.370;2023-07-09T06:59:37;31.60;91.20
12885;DHT22;6510;51.362;7.370;2023-07-09T07:02:03;31.80;91.40
12885;DHT22;6510;51.362;7.370;2023-07-09T07:04:29;32.10;89.80
12885;DHT22;6510;51.362;7.370;2023-07-09T07:06:55;32.30;90.60
12885;DHT22;6510;51.362;7.370;2023-07-09T07:09:22;32.60;90.70
12885;DHT22;6510;51.362;7.370;2023-07-09T07:11:49;32.90;89.20
12885;DHT22;6510;51.362;7.370;2023-07-09T07:14:15;33.20;87.30
12885;DHT22;6510;51.362;7.370;2023-07-09T07:16:41;33.30;88.00
12885;DHT22;6510;51.362;7.370;2023-07-09T07:19:07;33.50;86.00
12885;DHT22;6510;51.362;7.370;2023-07-09T07:21:32;33.80;86.30
12885;DHT22;6510;51.362;7.370;2023-07-09T07:23:58;33.90;85.30
12885;DHT22;6510;51.362;7.370;2023-07-09T07:26:26;33.60;86.00
12885;DHT22;6510;51.362;7.370;2023-07-09T07:28:52;34.20;84.80
12885;DHT22;6510;51.362;7.370;2023-07-09T07:31:18;34.50;85.00
12885;DHT22;6510;51.362;7.370;2023-07-09T07:33:43;34.80;81.50
12885;DHT22;6510;51.362;7.370;2023-07-09T07:36:10;34.70;81.80
12885;DHT22;6510;51.362;7.370;2023-07-09T07:38:36;34.90;81.20
12885;DHT22;6510;51.362;7.370;2023-07-09T07:41:02;35.00;80.90
12885;DHT22;6510;51.362;7.370;2023-07-09T07:43:28;35.20;81.50
12885;DHT22;6510;51.362;7.370;2023-07-09T07:45:53;34.70;80.50
12885;DHT22;6510;51.362;7.370;2023-07-09T07:48:19;35.30;81.80
12885;DHT22;6510;51.362;7.370;2023-07-09T07:50:45;35.50;80.10
12885;DHT22;6510;51.362;7.370;2023-07-09T07:53:14;35.30;79.00
12885;DHT22;6510;51.362;7.370;2023-07-09T07:55:40;35.80;78.00
12885;DHT22;6510;51.362;7.370;2023-07-09T07:58:07;35.80;77.50
12885;DHT22;6510;51.362;7.370;2023-07-09T08:00:33;36.20;78.20
12885;DHT22;6510;51.362;7.370;2023-07-09T08:02:59;36.40;78.40
12885;DHT22;6510;51.362;7.370;2023-07-09T08:05:24;36.10;77.20
12885;DHT22;6510;51.362;7.370;2023-07-09T08:07:50;35.60;77.60
12885;DHT22;6510;51.362;7.370;2023-07-09T08:10:16;35.70;77.30
12885;DHT22;6510;51.362;7.370;2023-07-09T08:12:41;35.90;76.60
12885;DHT22;6510;51.362;7.370;2023-07-09T08:15:08;36.30;78.30
12885;DHT22;6510;51.362;7.370;2023-07-09T08:17:35;36.40;77.20
12885;DHT22;6510;51.362;7.370;2023-07-09T08:20:00;36.80;76.10
12885;DHT22;6510;51.362;7.370;2023-07-09T08:22:26;36.80;75.30
12885;DHT22;6510;51.362;7.370;2023-07-09T08:24:52;37.40;74.20
12885;DHT22;6510;51.362;7.370;2023-07-09T08:27:18;38.00;73.10
12885;DHT22;6510;51.362;7.370;2023-07-09T08:29:44;38.70;69.20
12885;DHT22;6510;51.362;7.370;2023-07-09T08:32:11;38.40;68.70
12885;DHT22;6510;51.362;7.370;2023-07-09T08:34:38;38.20;71.10
12885;DHT22;6510;51.362;7.370;2023-07-09T08:37:05;38.90;68.70
12885;DHT22;6510;51.362;7.370;2023-07-09T08:39:31;39.40;67.00
12885;DHT22;6510;51.362;7.370;2023-07-09T08:48:08;38.30;65.40
12885;DHT22;6510;51.362;7.370;2023-07-09T08:50:41;39.40;65.80
12885;DHT22;6510;51.362;7.370;2023-07-09T08:53:21;40.10;63.80
12885;DHT22;6510;51.362;7.370;2023-07-09T08:55:50;40.20;63.00
12885;DHT22;6510;51.362;7.370;2023-07-09T08:58:24;39.30;64.60
12885;DHT22;6510;51.362;7.370;2023-07-09T09:00:54;39.40;68.40
12885;DHT22;6510;51.362;7.370;2023-07-09T09:03:41;39.50;64.50
12885;DHT22;6510;51.362;7.370;2023-07-09T09:06:17;39.60;63.50
12885;DHT22;6510;51.362;7.370;2023-07-09T09:14:05;40.70;62.60
12885;DHT22;6510;51.362;7.370;2023-07-09T09:16:35;40.70;63.50
12885;DHT22;6510;51.362;7.370;2023-07-09T09:19:01;40.00;63.70
12885;DHT22;6510;51.362;7.370;2023-07-09T09:21:34;39.90;62.50
12885;DHT22;6510;51.362;7.370;2023-07-09T09:24:23;39.80;62.70
12885;DHT22;6510;51.362;7.370;2023-07-09T09:26:53;40.40;60.20
12885;DHT22;6510;51.362;7.370;2023-07-09T09:29:24;40.40;61.60
12885;DHT22;6510;51.362;7.370;2023-07-09T09:31:53;40.40;62.90
12885;DHT22;6510;51.362;7.370;2023-07-09T09:34:27;41.00;59.00
12885;DHT22;6510;51.362;7.370;2023-07-09T09:36:54;41.10;60.50
12885;DHT22;6510;51.362;7.370;2023-07-09T09:39:22;41.80;58.90
12885;DHT22;6510;51.362;7.370;2023-07-09T09:41:48;42.90;59.20
12885;DHT22;6510;51.362;7.370;2023-07-09T09:44:19;43.10;59.10
12885;DHT22;6510;51.362;7.370;2023-07-09T09:46:45;42.60;57.50
12885;DHT22;6510;51.362;7.370;2023-07-09T09:49:13;42.40;56.50
12885;DHT22;6510;51.362;7.370;2023-07-09T09:51:40;42.60;56.30
12885;DHT22;6510;51.362;7.370;2023-07-09T09:54:21;42.00;57.10
12885;DHT22;6510;51.362;7.370;2023-07-09T09:56:49;41.70;58.30
12885;DHT22;6510;51.362;7.370;2023-07-09T09:59:20;41.60;57.60
12885;DHT22;6510;51.362;7.370;2023-07-09T10:01:47;41.10;57.30
12885;DHT22;6510;51.362;7.370;2023-07-09T10:04:21;42.00;57.90
12885;DHT22;6510;51.362;7.370;2023-07-09T10:06:50;41.10;57.00
12885;DHT22;6510;51.362;7.370;2023-07-09T10:12:14;41.20;56.70
12885;DHT22;6510;51.362;7.370;2023-07-09T10:14:53;41.40;57.90
12885;DHT22;6510;51.362;7.370;2023-07-09T10:17:53;41.30;57.30
12885;DHT22;6510;51.362;7.370;2023-07-09T10:20:37;41.40;59.00
12885;DHT22;6510;51.362;7.370;2023-07-09T10:23:14;41.40;56.30
12885;DHT22;6510;51.362;7.370;2023-07-09T10:25:57;41.40;58.90
12885;DHT22;6510;51.362;7.370;2023-07-09T10:34:00;40.90;54.20
12885;DHT22;6510;51.362;7.370;2023-07-09T10:39:18;41.50;54.70
12885;DHT22;6510;51.362;7.370;2023-07-09T10:41:46;42.10;55.90
12885;DHT22;6510;51.362;7.370;2023-07-09T10:44:29;43.00;51.90
12885;DHT22;6510;51.362;7.370;2023-07-09T10:47:00;43.20;53.00
12885;DHT22;6510;51.362;7.370;2023-07-09T10:49:37;44.30;52.90
12885;DHT22;6510;51.362;7.370;2023-07-09T10:52:27;44.00;51.70
12885;DHT22;6510;51.362;7.370;2023-07-09T10:55:17;42.70;53.40
12885;DHT22;6510;51.362;7.370;2023-07-09T11:00:38;43.10;54.10
12885;DHT22;6510;51.362;7.370;2023-07-09T11:03:22;43.80;51.70
12885;DHT22;6510;51.362;7.370;2023-07-09T11:05:50;42.70;52.20
12885;DHT22;6510;51.362;7.370;2023-07-09T11:08:23;40.90;54.50
12885;DHT22;6510;51.362;7.370;2023-07-09T11:10:58;41.70;54.70
12885;DHT22;6510;51.362;7.370;2023-07-09T11:15:55;43.10;54.10
12885;DHT22;6510;51.362;7.370;2023-07-09T11:18:29;43.30;52.10
12885;DHT22;6510;51.362;7.370;2023-07-09T11:21:01;43.00;52.40
12885;DHT22;6510;51.362;7.370;2023-07-09T11:23:59;43.20;52.40
12885;DHT22;6510;51.362;7.370;2023-07-09T11:26:30;43.20;53.10
12885;DHT22;6510;51.362;7.370;2023-07-09T11:29:17;42.40;54.10
12885;DHT22;6510;51.362;7.370;2023-07-09T11:31:46;42.60;52.50
12885;DHT22;6510;51.362;7.370;2023-07-09T11:39:23;42.90;51.10
12885;DHT22;6510;51.362;7.370;2023-07-09T11:41:52;42.80;52.30
12885;DHT22;6510;51.362;7.370;2023-07-09T11:44:26;41.80;51.30
12885;DHT22;6510;51.362;7.370;2023-07-09T11:52:45;42.30;51.10
12885;DHT22;6510;51.362;7.370;2023-07-09T11:55:26;42.60;52.50
12885;DHT22;6510;51.362;7.370;2023-07-09T11:57:57;43.50;52.40
12885;DHT22;6510;51.362;7.370;2023-07-09T12:00:30;42.70;52.00
12885;DHT22;6510;51.362;7.370;2023-07-09T12:03:00;42.00;52.10
12885;DHT22;6510;51.362;7.370;2023-07-09T12:05:27;40.90;52.70
12885;DHT22;6510;51.362;7.370;2023-07-09T12:07:55;40.40;53.90
12885;DHT22;6510;51.362;7.370;2023-07-09T12:10:24;40.00;54.50
12885;DHT22;6510;51.362;7.370;2023-07-09T12:12:57;40.00;54.10
12885;DHT22;6510;51.362;7.370;2023-07-09T12:15:26;39.20;54.50
12885;DHT22;6510;51.362;7.370;2023-07-09T12:17:54;40.60;54.80
12885;DHT22;6510;51.362;7.370;2023-07-09T12:20:20;41.20;51.00
12885;DHT22;6510;51.362;7.370;2023-07-09T12:22:46;41.60;52.20
12885;DHT22;6510;51.362;7.370;2023-07-09T12:25:20;41.10;52.90
12885;DHT22;6510;51.362;7.370;2023-07-09T12:27:47;40.40;53.70
12885;DHT22;6510;51.362;7.370;2023-07-09T12:30:13;40.00;54.10
12885;DHT22;6510;51.362;7.370;2023-07-09T12:32:48;39.00;55.20
12885;DHT22;6510;51.362;7.370;2023-07-09T12:35:15;39.10;54.40
12885;DHT22;6510;51.362;7.370;2023-07-09T12:37:43;39.00;56.00
12885;DHT22;6510;51.362;7.370;2023-07-09T12:40:30;38.70;55.60
12885;DHT22;6510;51.362;7.370;2023-07-09T12:42:56;38.50;57.20
12885;DHT22;6510;51.362;7.370;2023-07-09T12:45:23;38.20;56.50
12885;DHT22;6510;51.362;7.370;2023-07-09T12:47:50;38.10;55.50
12885;DHT22;6510;51.362;7.370;2023-07-09T12:50:26;37.90;56.10
12885;DHT22;6510;51.362;7.370;2023-07-09T12:52:55;39.00;55.30
12885;DHT22;6510;51.362;7.370;2023-07-09T12:55:26;38.00;54.90
12885;DHT22;6510;51.362;7.370;2023-07-09T12:57:56;38.40;55.30
12885;DHT22;6510;51.362;7.370;2023-07-09T13:00:25;39.80;54.20
12885;DHT22;6510;51.362;7.370;2023-07-09T13:02:55;40.90;54.80
12885;DHT22;6510;51.362;7.370;2023-07-09T13:05:24;40.60;52.50
12885;DHT22;6510;51.362;7.370;2023-07-09T13:07:53;41.70;52.90
12885;DHT22;6510;51.362;7.370;2023-07-09T13:10:27;41.80;52.70
12885;DHT22;6510;51.362;7.370;2023-07-09T13:13:00;42.80;52.30
12885;DHT22;6510;51.362;7.370;2023-07-09T13:15:42;40.80;50.90
12885;DHT22;6510;51.362;7.370;2023-07-09T13:18:12;39.40;52.60
12885;DHT22;6510;51.362;7.370;2023-07-09T13:20:43;38.40;54.60
12885;DHT22;6510;51.362;7.370;2023-07-09T13:23:18;37.40;57.80
12885;DHT22;6510;51.362;7.370;2023-07-09T13:25:44;37.40;56.80
12885;DHT22;6510;51.362;7.370;2023-07-09T13:28:21;36.50;56.20
12885;DHT22;6510;51.362;7.370;2023-07-09T13:30:48;36.20;57.70
12885;DHT22;6510;51.362;7.370;2023-07-09T13:33:16;36.10;58.70
12885;DHT22;6510;51.362;7.370;2023-07-09T13:35:43;35.90;58.70
12885;DHT22;6510;51.362;7.370;2023-07-09T13:38:18;35.60;58.40
12885;DHT22;6510;51.362;7.370;2023-07-09T13:40:48;35.30;59.10
12885;DHT22;6510;51.362;7.370;2023-07-09T13:43:18;35.20;60.40
12885;DHT22;6510;51.362;7.370;2023-07-09T13:45:44;35.30;61.00
12885;DHT22;6510;51.362;7.370;2023-07-09T13:48:17;35.20;61.60
12885;DHT22;6510;51.362;7.370;2023-07-09T13:50:44;34.90;59.20
12885;DHT22;6510;51.362;7.370;2023-07-09T13:53:23;35.00;60.50
12885;DHT22;6510;51.362;7.370;2023-07-09T13:55:49;34.60;61.20
12885;DHT22;6510;51.362;7.370;2023-07-09T13:58:17;34.40;60.50
12885;DHT22;6510;51.362;7.370;2023-07-09T14:00:44;34.30;62.10
12885;DHT22;6510;51.362;7.370;2023-07-09T14:03:17;34.00;64.70
12885;DHT22;6510;51.362;7.370;2023-07-09T14:05:44;33.80;63.50
12885;DHT22;6510;51.362;7.370;2023-07-09T14:08:11;33.80;64.00
12885;DHT22;6510;51.362;7.370;2023-07-09T14:10:37;33.60;65.70
12885;DHT22;6510;51.362;7.370;2023-07-09T14:13:03;33.50;66.60
12885;DHT22;6510;51.362;7.370;2023-07-09T14:15:29;33.40;67.10
12885;DHT22;6510;51.362;7.370;2023-07-09T14:17:55;33.30;65.60
12885;DHT22;6510;51.362;7.370;2023-07-09T14:20:22;33.10;66.90
12885;DHT22;6510;51.362;7.370;2023-07-09T14:22:48;32.90;68.30
12885;DHT22;6510;51.362;7.370;2023-07-09T14:25:23;32.80;69.00
12885;DHT22;6510;51.362;7.370;2023-07-09T14:27:50;32.70;68.10
12885;DHT22;6510;51.362;7.370;2023-07-09T14:30:22;32.60;71.20
12885;DHT22;6510;51.362;7.370;2023-07-09T14:32:48;32.40;70.60
12885;DHT22;6510;51.362;7.370;2023-07-09T14:35:22;32.30;70.40
12885;DHT22;6510;51.362;7.370;2023-07-09T14:37:51;32.30;70.80
12885;DHT22;6510;51.362;7.370;2023-07-09T14:40:18;32.20;72.70
12885;DHT22;6510;51.362;7.370;2023-07-09T14:42:46;32.10;74.50
12885;DHT22;6510;51.362;7.370;2023-07-09T14:45:18;32.00;73.20
12885;DHT22;6510;51.362;7.370;2023-07-09T14:47:44;31.80;75.80
12885;DHT22;6510;51.362;7.370;2023-07-09T14:50:10;31.60;75.00
12885;DHT22;6510;51.362;7.370;2023-07-09T14:52:36;31.50;74.70
12885;DHT22;6510;51.362;7.370;2023-07-09T14:55:02;31.40;75.00
12885;DHT22;6510;51.362;7.370;2023-07-09T14:57:28;31.40;75.50
12885;DHT22;6510;51.362;7.370;2023-07-09T14:59:56;31.20;78.80
12885;DHT22;6510;51.362;7.370;2023-07-09T15:04:48;28.50;99.30
12885;DHT22;6510;51.362;7.370;2023-07-09T15:07:15;26.20;99.90
12885;DHT22;6510;51.362;7.370;2023-07-09T15:09:40;24.70;99.90
12885;DHT22;6510;51.362;7.370;2023-07-09T15:12:18;23.80;99.90
12885;DHT22;6510;51.362;7.370;2023-07-09T15:14:44;23.20;99.90
12885;DHT22;6510;51.362;7.370;2023-07-09T15:17:11;22.80;99.90
12885;DHT22;6510;51.362;7.370;2023-07-09T15:19:37;22.50;99.90
12885;DHT22;6510;51.362;7.370;2023-07-09T15:22:03;22.30;99.90
12885;DHT22;6510;51.362;7.370;2023-07-09T15:24:34;21.90;99.90
12885;DHT22;6510;51.362;7.370;2023-07-09T15:27:00;21.70;99.90
12885;DHT22;6510;51.362;7.370;2023-07-09T15:29:30;21.40;99.90
12885;DHT22;6510;51.362;7.370;2023-07-09T15:31:57;21.10;99.90
12885;DHT22;6510;51.362;7.370;2023-07-09T15:34:23;20.80;99.90
12885;DHT22;6510;51.362;7.370;2023-07-09T15:36:51;20.60;99.90
12885;DHT22;6510;51.362;7.370;2023-07-09T15:39:18;20.60;99.90
12885;DHT22;6510;51.362;7.370;2023-07-09T15:41:44;20.50;99.90
12885;DHT22;6510;51.362;7.370;2023-07-09T15:44:15;20.60;99.90
12885;DHT22;6510;51.362;7.370;2023-07-09T15:46:42;20.50;99.90
12885;DHT22;6510;51.362;7.370;2023-07-09T15:49:13;20.50;99.90
12885;DHT22;6510;51.362;7.370;2023-07-09T15:51:39;20.60;99.90
12885;DHT22;6510;51.362;7.370;2023-07-09T15:54:18;20.80;99.90
12885;DHT22;6510;51.362;7.370;2023-07-09T15:56:44;20.90;99.90
12885;DHT22;6510;51.362;7.370;2023-07-09T15:59:33;20.80;99.90
12885;DHT22;6510;51.362;7.370;2023-07-09T16:02:00;20.80;99.90
12885;DHT22;6510;51.362;7.370;2023-07-09T16:04:27;20.70;99.90
12885;DHT22;6510;51.362;7.370;2023-07-09T16:06:53;21.00;99.90
12885;DHT22;6510;51.362;7.370;2023-07-09T16:09:19;21.10;99.90
12885;DHT22;6510;51.362;7.370;2023-07-09T16:11:50;21.20;99.90
12885;DHT22;6510;51.362;7.370;2023-07-09T16:16:45;21.00;99.90
12885;DHT22;6510;51.362;7.370;2023-07-09T16:19:11;20.90;99.90
12885;DHT22;6510;51.362;7.370;2023-07-09T16:21:37;20.90;99.90
12885;DHT22;6510;51.362;7.370;2023-07-09T16:24:14;21.00;99.90
12885;DHT22;6510;51.362;7.370;2023-07-09T16:26:40;20.90;99.90
12885;DHT22;6510;51.362;7.370;2023-07-09T16:29:24;21.00;99.90
12885;DHT22;6510;51.362;7.370;2023-07-09T16:31:52;21.10;99.90
12885;DHT22;6510;51.362;7.370;2023-07-09T16:34:19;21.10;99.90
12885;DHT22;6510;51.362;7.370;2023-07-09T16:36:44;21.10;99.90
12885;DHT22;6510;51.362;7.370;2023-07-09T16:39:36;21.00;99.90